BAW19LX ELLX-EGLL
Flight info
| Callsign | BAW19LX |
|---|---|
| Flight time | N/A |
| Altitude | 30000 |
| Route | LNO N852 TERLA L608 LOGAN |
| Aircraft | A320/M-SDE3FGHIRWY/LB1 |
Departure
| Time | 2026-04-29 18:24 |
|---|---|
| Airport | Luxembourg-Findel International Airport (ELLX) |
Arrival
| Time | N/A |
|---|---|
| Airport | London Heathrow Airport (EGLL) |
| Time | Latitude | Longitude | Altitude | Speed | Heading |
|---|---|---|---|---|---|
| 2026-04-29 18:02 | 49.63408 | 6.21850 | 1195 ft | 0 kts | 329° |
| 2026-04-29 18:13 | 49.63405 | 6.21853 | 1195 ft | 2 kts | 329° |
| 2026-04-29 18:13 | 49.63390 | 6.21866 | 1195 ft | 2 kts | 329° |
| 2026-04-29 18:14 | 49.63376 | 6.21880 | 1195 ft | 2 kts | 330° |
| 2026-04-29 18:14 | 49.63361 | 6.21893 | 1196 ft | 2 kts | 302° |
| 2026-04-29 18:14 | 49.63357 | 6.21908 | 1196 ft | 0 kts | 255° |
| 2026-04-29 18:17 | 49.63355 | 6.21900 | 1196 ft | 3 kts | 255° |
| 2026-04-29 18:18 | 49.63338 | 6.21836 | 1196 ft | 8 kts | 243° |
| 2026-04-29 18:18 | 49.63282 | 6.21803 | 1196 ft | 12 kts | 156° |
| 2026-04-29 18:18 | 49.63210 | 6.21868 | 1197 ft | 3 kts | 151° |
| 2026-04-29 18:19 | 49.63206 | 6.21872 | 1197 ft | 2 kts | 151° |
| 2026-04-29 18:20 | 49.63173 | 6.21891 | 1197 ft | 8 kts | 178° |
| 2026-04-29 18:20 | 49.63129 | 6.21811 | 1198 ft | 13 kts | 244° |
| 2026-04-29 18:20 | 49.63079 | 6.21647 | 1197 ft | 20 kts | 244° |
| 2026-04-29 18:20 | 49.63010 | 6.21436 | 1197 ft | 23 kts | 244° |
| 2026-04-29 18:21 | 49.62943 | 6.21202 | 1197 ft | 25 kts | 245° |
| 2026-04-29 18:21 | 49.62864 | 6.20955 | 1196 ft | 27 kts | 243° |
| 2026-04-29 18:21 | 49.62771 | 6.20726 | 1196 ft | 26 kts | 221° |
| 2026-04-29 18:21 | 49.62647 | 6.20552 | 1197 ft | 24 kts | 227° |
| 2026-04-29 18:22 | 49.62532 | 6.20345 | 1198 ft | 26 kts | 231° |
| 2026-04-29 18:22 | 49.62433 | 6.20108 | 1198 ft | 28 kts | 240° |
| 2026-04-29 18:22 | 49.62341 | 6.19858 | 1198 ft | 25 kts | 242° |
| 2026-04-29 18:22 | 49.62251 | 6.19614 | 1198 ft | 21 kts | 239° |
| 2026-04-29 18:23 | 49.62153 | 6.19582 | 1204 ft | 15 kts | 149° |
| 2026-04-29 18:23 | 49.62098 | 6.19677 | 1207 ft | 11 kts | 94° |
| 2026-04-29 18:23 | 49.62111 | 6.19720 | 1210 ft | 2 kts | 58° |
| 2026-04-29 18:23 | 49.62229 | 6.20038 | 1212 ft | 68 kts | 60° |
| 2026-04-29 18:24 | 49.62566 | 6.20947 | 1216 ft | 123 kts | 60° |
| 2026-04-29 18:24 | 49.63051 | 6.22243 | 1420 ft | 147 kts | 60° |
| 2026-04-29 18:24 | 49.63572 | 6.23643 | 1891 ft | 160 kts | 62° |
| 2026-04-29 18:24 | 49.64162 | 6.25240 | 2305 ft | 182 kts | 62° |
| 2026-04-29 18:25 | 49.64826 | 6.27042 | 2753 ft | 205 kts | 63° |
| 2026-04-29 18:25 | 49.65575 | 6.29073 | 3294 ft | 228 kts | 63° |
| 2026-04-29 18:25 | 49.66398 | 6.31299 | 4151 ft | 234 kts | 62° |
| 2026-04-29 18:25 | 49.67216 | 6.33503 | 5078 ft | 239 kts | 63° |
| 2026-04-29 18:26 | 49.68249 | 6.35572 | 5913 ft | 252 kts | 42° |
| 2026-04-29 18:26 | 49.69872 | 6.36745 | 6687 ft | 270 kts | 13° |
| 2026-04-29 18:26 | 49.71773 | 6.36442 | 7477 ft | 285 kts | 340° |
| 2026-04-29 18:26 | 49.73382 | 6.34604 | 8323 ft | 295 kts | 316° |
| 2026-04-29 18:27 | 49.74772 | 6.32248 | 9245 ft | 297 kts | 314° |
| 2026-04-29 18:27 | 49.76133 | 6.29833 | 10156 ft | 299 kts | 313° |
| 2026-04-29 18:27 | 49.77524 | 6.27337 | 10596 ft | 317 kts | 314° |
| 2026-04-29 18:27 | 49.79017 | 6.24666 | 10819 ft | 340 kts | 314° |
| 2026-04-29 18:28 | 49.80597 | 6.21856 | 11312 ft | 350 kts | 313° |
| 2026-04-29 18:28 | 49.82055 | 6.19271 | 11932 ft | 354 kts | 314° |
| 2026-04-29 18:28 | 49.83866 | 6.16073 | 12749 ft | 357 kts | 314° |
| 2026-04-29 18:28 | 49.85509 | 6.13172 | 13509 ft | 360 kts | 314° |
| 2026-04-29 18:29 | 49.87172 | 6.10242 | 14212 ft | 363 kts | 314° |
| 2026-04-29 18:29 | 49.88278 | 6.08290 | 14647 ft | 365 kts | 314° |
| 2026-04-29 18:29 | 49.90527 | 6.04312 | 15495 ft | 369 kts | 314° |
| 2026-04-29 18:29 | 49.92224 | 6.01306 | 16156 ft | 371 kts | 314° |
| 2026-04-29 18:30 | 49.93925 | 5.98290 | 16802 ft | 373 kts | 314° |
| 2026-04-29 18:30 | 49.95640 | 5.95247 | 17457 ft | 375 kts | 314° |
| 2026-04-29 18:30 | 49.97365 | 5.92180 | 18099 ft | 378 kts | 314° |
| 2026-04-29 18:30 | 49.99103 | 5.89091 | 18706 ft | 382 kts | 315° |
| 2026-04-29 18:31 | 50.00858 | 5.85967 | 19261 ft | 385 kts | 315° |
| 2026-04-29 18:31 | 50.02725 | 5.82643 | 19813 ft | 390 kts | 315° |
| 2026-04-29 18:31 | 50.04425 | 5.79613 | 20330 ft | 394 kts | 315° |
| 2026-04-29 18:31 | 50.06240 | 5.76375 | 20829 ft | 400 kts | 315° |
| 2026-04-29 18:32 | 50.08071 | 5.73099 | 21333 ft | 404 kts | 315° |
| 2026-04-29 18:32 | 50.11823 | 5.66363 | 22324 ft | 413 kts | 315° |
| 2026-04-29 18:32 | 50.13741 | 5.62918 | 22834 ft | 417 kts | 315° |
| 2026-04-29 18:33 | 50.15679 | 5.59428 | 23317 ft | 422 kts | 315° |
| 2026-04-29 18:33 | 50.17613 | 5.55949 | 23791 ft | 426 kts | 315° |
| 2026-04-29 18:33 | 50.19562 | 5.52445 | 24203 ft | 429 kts | 315° |
| 2026-04-29 18:33 | 50.21526 | 5.48908 | 24608 ft | 433 kts | 314° |
| 2026-04-29 18:34 | 50.23497 | 5.45344 | 25001 ft | 436 kts | 314° |
| 2026-04-29 18:34 | 50.24141 | 5.44176 | 25132 ft | 436 kts | 314° |
| 2026-04-29 18:34 | 50.27474 | 5.38124 | 25803 ft | 441 kts | 314° |
| 2026-04-29 18:34 | 50.29476 | 5.34480 | 26191 ft | 443 kts | 314° |
| 2026-04-29 18:35 | 50.31491 | 5.30815 | 26566 ft | 445 kts | 315° |
| 2026-04-29 18:35 | 50.33517 | 5.27129 | 26958 ft | 447 kts | 315° |
| 2026-04-29 18:35 | 50.34888 | 5.24631 | 27199 ft | 449 kts | 315° |
| 2026-04-29 18:35 | 50.36927 | 5.20910 | 27599 ft | 451 kts | 315° |
| 2026-04-29 18:36 | 50.38973 | 5.17169 | 27971 ft | 454 kts | 315° |
| 2026-04-29 18:36 | 50.41700 | 5.12174 | 28481 ft | 457 kts | 315° |
| 2026-04-29 18:36 | 50.43766 | 5.08379 | 28835 ft | 459 kts | 314° |
| 2026-04-29 18:36 | 50.45170 | 5.05797 | 29052 ft | 461 kts | 314° |
| 2026-04-29 18:37 | 50.47257 | 5.01959 | 29389 ft | 464 kts | 314° |
| 2026-04-29 18:37 | 50.49353 | 4.98102 | 29723 ft | 466 kts | 314° |
| 2026-04-29 18:37 | 50.51460 | 4.94213 | 30123 ft | 467 kts | 314° |
| 2026-04-29 18:37 | 50.53556 | 4.90334 | 30229 ft | 462 kts | 314° |
| 2026-04-29 18:38 | 50.57481 | 4.83041 | 30236 ft | 455 kts | 314° |
| 2026-04-29 18:38 | 50.61601 | 4.75391 | 30248 ft | 454 kts | 315° |
| 2026-04-29 18:39 | 50.65682 | 4.67808 | 30254 ft | 454 kts | 314° |
| 2026-04-29 18:39 | 50.69762 | 4.60191 | 30264 ft | 455 kts | 314° |
| 2026-04-29 18:40 | 50.73840 | 4.52551 | 30269 ft | 456 kts | 314° |
| 2026-04-29 18:40 | 50.77918 | 4.44879 | 30276 ft | 456 kts | 314° |